sensor_id;sensor_type;location;lat;lon;timestamp;P1;durP1;ratioP1;P2;durP2;ratioP2
3379;SDS011;1703;51.964;7.642;2023-09-18T00:02:01;7.53;;;6.80;;
3379;SDS011;1703;51.964;7.642;2023-09-18T00:04:28;9.77;;;7.23;;
3379;SDS011;1703;51.964;7.642;2023-09-18T00:06:55;6.83;;;6.20;;
3379;SDS011;1703;51.964;7.642;2023-09-18T00:09:22;7.80;;;7.00;;
3379;SDS011;1703;51.964;7.642;2023-09-18T00:11:49;7.23;;;6.43;;
3379;SDS011;1703;51.964;7.642;2023-09-18T00:14:17;7.33;;;6.63;;
3379;SDS011;1703;51.964;7.642;2023-09-18T00:16:44;8.37;;;6.80;;
3379;SDS011;1703;51.964;7.642;2023-09-18T00:19:11;7.10;;;5.80;;
3379;SDS011;1703;51.964;7.642;2023-09-18T00:21:38;7.60;;;6.63;;
3379;SDS011;1703;51.964;7.642;2023-09-18T00:24:05;7.37;;;6.67;;
3379;SDS011;1703;51.964;7.642;2023-09-18T00:26:33;7.37;;;6.20;;
3379;SDS011;1703;51.964;7.642;2023-09-18T00:29:00;12.73;;;7.33;;
3379;SDS011;1703;51.964;7.642;2023-09-18T00:31:28;6.90;;;6.20;;
3379;SDS011;1703;51.964;7.642;2023-09-18T00:33:55;6.97;;;6.33;;
3379;SDS011;1703;51.964;7.642;2023-09-18T00:36:21;7.53;;;6.83;;
3379;SDS011;1703;51.964;7.642;2023-09-18T00:38:48;8.20;;;6.20;;
3379;SDS011;1703;51.964;7.642;2023-09-18T00:41:15;9.23;;;6.67;;
3379;SDS011;1703;51.964;7.642;2023-09-18T00:43:42;7.10;;;6.40;;
3379;SDS011;1703;51.964;7.642;2023-09-18T00:46:09;8.77;;;7.47;;
3379;SDS011;1703;51.964;7.642;2023-09-18T00:48:37;10.70;;;7.30;;
3379;SDS011;1703;51.964;7.642;2023-09-18T00:51:04;7.80;;;6.90;;
3379;SDS011;1703;51.964;7.642;2023-09-18T00:53:32;7.17;;;5.90;;
3379;SDS011;1703;51.964;7.642;2023-09-18T00:55:59;9.67;;;7.33;;
3379;SDS011;1703;51.964;7.642;2023-09-18T00:58:27;7.03;;;6.43;;
3379;SDS011;1703;51.964;7.642;2023-09-18T01:00:54;7.27;;;6.53;;
3379;SDS011;1703;51.964;7.642;2023-09-18T01:03:21;10.00;;;6.63;;
3379;SDS011;1703;51.964;7.642;2023-09-18T01:05:51;7.30;;;6.47;;
3379;SDS011;1703;51.964;7.642;2023-09-18T01:08:19;10.00;;;6.97;;
3379;SDS011;1703;51.964;7.642;2023-09-18T01:10:47;6.93;;;6.20;;
3379;SDS011;1703;51.964;7.642;2023-09-18T01:13:23;9.63;;;6.13;;
3379;SDS011;1703;51.964;7.642;2023-09-18T01:15:57;9.40;;;6.73;;
3379;SDS011;1703;51.964;7.642;2023-09-18T01:18:29;6.70;;;6.07;;
3379;SDS011;1703;51.964;7.642;2023-09-18T01:20:57;9.13;;;7.00;;
3379;SDS011;1703;51.964;7.642;2023-09-18T01:23:25;7.93;;;6.90;;
3379;SDS011;1703;51.964;7.642;2023-09-18T01:25:52;7.43;;;6.57;;
3379;SDS011;1703;51.964;7.642;2023-09-18T01:28:19;8.23;;;6.23;;
3379;SDS011;1703;51.964;7.642;2023-09-18T01:30:45;13.30;;;6.73;;
3379;SDS011;1703;51.964;7.642;2023-09-18T01:33:12;11.93;;;8.60;;
3379;SDS011;1703;51.964;7.642;2023-09-18T01:35:41;7.37;;;6.67;;
3379;SDS011;1703;51.964;7.642;2023-09-18T01:38:09;7.60;;;6.33;;
3379;SDS011;1703;51.964;7.642;2023-09-18T01:40:38;7.97;;;7.17;;
3379;SDS011;1703;51.964;7.642;2023-09-18T01:43:05;9.30;;;7.47;;
3379;SDS011;1703;51.964;7.642;2023-09-18T01:45:32;8.70;;;6.47;;
3379;SDS011;1703;51.964;7.642;2023-09-18T01:47:59;13.50;;;8.07;;
3379;SDS011;1703;51.964;7.642;2023-09-18T01:50:26;10.73;;;6.30;;
3379;SDS011;1703;51.964;7.642;2023-09-18T01:52:53;7.93;;;7.13;;
3379;SDS011;1703;51.964;7.642;2023-09-18T01:55:19;8.03;;;7.30;;
3379;SDS011;1703;51.964;7.642;2023-09-18T01:57:48;8.73;;;6.97;;
3379;SDS011;1703;51.964;7.642;2023-09-18T02:00:15;9.47;;;8.00;;
3379;SDS011;1703;51.964;7.642;2023-09-18T02:02:43;11.30;;;7.90;;
3379;SDS011;1703;51.964;7.642;2023-09-18T02:05:10;8.63;;;7.50;;
3379;SDS011;1703;51.964;7.642;2023-09-18T02:07:37;9.67;;;8.67;;
3379;SDS011;1703;51.964;7.642;2023-09-18T02:10:04;9.13;;;7.20;;
3379;SDS011;1703;51.964;7.642;2023-09-18T02:12:31;8.83;;;8.03;;
3379;SDS011;1703;51.964;7.642;2023-09-18T02:15:02;9.40;;;7.60;;
3379;SDS011;1703;51.964;7.642;2023-09-18T02:17:31;12.13;;;7.57;;
3379;SDS011;1703;51.964;7.642;2023-09-18T02:19:58;8.60;;;7.23;;
3379;SDS011;1703;51.964;7.642;2023-09-18T02:22:26;16.33;;;7.30;;
3379;SDS011;1703;51.964;7.642;2023-09-18T02:24:52;11.00;;;8.57;;
3379;SDS011;1703;51.964;7.642;2023-09-18T02:27:19;9.40;;;8.40;;
3379;SDS011;1703;51.964;7.642;2023-09-18T02:29:46;9.43;;;7.73;;
3379;SDS011;1703;51.964;7.642;2023-09-18T02:32:16;10.40;;;7.77;;
3379;SDS011;1703;51.964;7.642;2023-09-18T02:34:43;13.40;;;8.10;;
3379;SDS011;1703;51.964;7.642;2023-09-18T02:37:10;11.50;;;9.10;;
3379;SDS011;1703;51.964;7.642;2023-09-18T02:39:37;8.60;;;7.80;;
3379;SDS011;1703;51.964;7.642;2023-09-18T02:42:04;9.10;;;7.43;;
3379;SDS011;1703;51.964;7.642;2023-09-18T02:44:31;11.77;;;7.47;;
3379;SDS011;1703;51.964;7.642;2023-09-18T02:46:58;12.73;;;9.00;;
3379;SDS011;1703;51.964;7.642;2023-09-18T02:49:26;10.10;;;8.00;;
3379;SDS011;1703;51.964;7.642;2023-09-18T02:51:53;17.53;;;8.07;;
3379;SDS011;1703;51.964;7.642;2023-09-18T02:54:20;9.70;;;7.47;;
3379;SDS011;1703;51.964;7.642;2023-09-18T02:56:47;19.07;;;8.20;;
3379;SDS011;1703;51.964;7.642;2023-09-18T02:59:14;9.03;;;7.23;;
3379;SDS011;1703;51.964;7.642;2023-09-18T03:01:40;12.00;;;8.70;;
3379;SDS011;1703;51.964;7.642;2023-09-18T03:04:07;11.67;;;8.33;;
3379;SDS011;1703;51.964;7.642;2023-09-18T03:06:37;15.00;;;7.83;;
3379;SDS011;1703;51.964;7.642;2023-09-18T03:09:05;13.80;;;8.90;;
3379;SDS011;1703;51.964;7.642;2023-09-18T03:11:31;13.27;;;9.47;;
3379;SDS011;1703;51.964;7.642;2023-09-18T03:13:58;12.97;;;8.27;;
3379;SDS011;1703;51.964;7.642;2023-09-18T03:16:25;10.40;;;8.27;;
3379;SDS011;1703;51.964;7.642;2023-09-18T03:18:52;12.27;;;8.70;;
3379;SDS011;1703;51.964;7.642;2023-09-18T03:21:19;11.13;;;9.27;;
3379;SDS011;1703;51.964;7.642;2023-09-18T03:23:47;15.67;;;8.17;;
3379;SDS011;1703;51.964;7.642;2023-09-18T03:26:15;10.07;;;7.03;;
3379;SDS011;1703;51.964;7.642;2023-09-18T03:28:42;9.10;;;7.00;;
3379;SDS011;1703;51.964;7.642;2023-09-18T03:31:09;9.87;;;7.13;;
3379;SDS011;1703;51.964;7.642;2023-09-18T03:33:36;7.50;;;6.70;;
3379;SDS011;1703;51.964;7.642;2023-09-18T03:36:03;11.23;;;8.27;;
3379;SDS011;1703;51.964;7.642;2023-09-18T03:38:32;8.30;;;7.23;;
3379;SDS011;1703;51.964;7.642;2023-09-18T03:41:03;8.50;;;7.50;;
3379;SDS011;1703;51.964;7.642;2023-09-18T03:43:30;8.17;;;7.37;;
3379;SDS011;1703;51.964;7.642;2023-09-18T03:46:02;14.63;;;8.53;;
3379;SDS011;1703;51.964;7.642;2023-09-18T03:48:31;10.80;;;7.63;;
3379;SDS011;1703;51.964;7.642;2023-09-18T03:51:02;11.33;;;7.00;;
3379;SDS011;1703;51.964;7.642;2023-09-18T03:53:30;7.77;;;7.07;;
3379;SDS011;1703;51.964;7.642;2023-09-18T03:55:58;13.13;;;7.57;;
3379;SDS011;1703;51.964;7.642;2023-09-18T03:58:26;9.37;;;6.50;;
3379;SDS011;1703;51.964;7.642;2023-09-18T04:00:53;11.20;;;6.70;;
3379;SDS011;1703;51.964;7.642;2023-09-18T04:03:20;12.13;;;6.80;;
3379;SDS011;1703;51.964;7.642;2023-09-18T04:05:46;8.87;;;6.73;;
3379;SDS011;1703;51.964;7.642;2023-09-18T04:08:14;8.67;;;6.37;;
3379;SDS011;1703;51.964;7.642;2023-09-18T04:10:41;8.90;;;6.67;;
3379;SDS011;1703;51.964;7.642;2023-09-18T04:13:09;11.67;;;6.60;;
3379;SDS011;1703;51.964;7.642;2023-09-18T04:15:37;13.43;;;7.00;;
3379;SDS011;1703;51.964;7.642;2023-09-18T04:18:04;8.70;;;7.60;;
3379;SDS011;1703;51.964;7.642;2023-09-18T04:20:31;7.50;;;6.20;;
3379;SDS011;1703;51.964;7.642;2023-09-18T04:23:17;10.67;;;6.80;;
3379;SDS011;1703;51.964;7.642;2023-09-18T04:25:46;9.00;;;8.17;;
3379;SDS011;1703;51.964;7.642;2023-09-18T04:28:13;6.50;;;5.83;;
3379;SDS011;1703;51.964;7.642;2023-09-18T04:30:42;8.80;;;6.60;;
3379;SDS011;1703;51.964;7.642;2023-09-18T04:33:09;11.47;;;6.73;;
3379;SDS011;1703;51.964;7.642;2023-09-18T04:35:37;15.90;;;6.53;;
3379;SDS011;1703;51.964;7.642;2023-09-18T04:38:07;12.63;;;6.93;;
3379;SDS011;1703;51.964;7.642;2023-09-18T04:40:35;18.40;;;7.00;;
3379;SDS011;1703;51.964;7.642;2023-09-18T04:43:02;12.43;;;6.67;;
3379;SDS011;1703;51.964;7.642;2023-09-18T04:45:30;10.30;;;6.87;;
3379;SDS011;1703;51.964;7.642;2023-09-18T04:47:58;7.00;;;6.40;;
3379;SDS011;1703;51.964;7.642;2023-09-18T04:50:25;7.63;;;5.43;;
3379;SDS011;1703;51.964;7.642;2023-09-18T04:52:52;7.30;;;6.33;;
3379;SDS011;1703;51.964;7.642;2023-09-18T04:55:21;14.10;;;6.27;;
3379;SDS011;1703;51.964;7.642;2023-09-18T04:57:48;8.67;;;6.03;;
3379;SDS011;1703;51.964;7.642;2023-09-18T05:00:15;10.60;;;6.70;;
3379;SDS011;1703;51.964;7.642;2023-09-18T05:02:43;14.03;;;6.90;;
3379;SDS011;1703;51.964;7.642;2023-09-18T05:05:11;12.07;;;6.43;;
3379;SDS011;1703;51.964;7.642;2023-09-18T05:07:38;11.57;;;7.60;;
3379;SDS011;1703;51.964;7.642;2023-09-18T05:10:06;8.63;;;6.80;;
3379;SDS011;1703;51.964;7.642;2023-09-18T05:12:33;10.90;;;6.07;;
3379;SDS011;1703;51.964;7.642;2023-09-18T05:15:00;7.70;;;6.90;;
3379;SDS011;1703;51.964;7.642;2023-09-18T05:17:39;7.60;;;6.87;;
3379;SDS011;1703;51.964;7.642;2023-09-18T05:20:13;8.83;;;6.30;;
3379;SDS011;1703;51.964;7.642;2023-09-18T05:22:43;7.63;;;5.83;;
3379;SDS011;1703;51.964;7.642;2023-09-18T05:25:10;6.90;;;5.77;;
3379;SDS011;1703;51.964;7.642;2023-09-18T05:27:39;6.27;;;5.67;;
3379;SDS011;1703;51.964;7.642;2023-09-18T05:30:10;7.50;;;6.13;;
3379;SDS011;1703;51.964;7.642;2023-09-18T05:32:38;9.63;;;5.40;;
3379;SDS011;1703;51.964;7.642;2023-09-18T05:35:05;9.87;;;6.10;;
3379;SDS011;1703;51.964;7.642;2023-09-18T05:37:36;5.90;;;4.47;;
3379;SDS011;1703;51.964;7.642;2023-09-18T05:40:04;7.50;;;5.63;;
3379;SDS011;1703;51.964;7.642;2023-09-18T05:42:34;7.70;;;4.47;;
3379;SDS011;1703;51.964;7.642;2023-09-18T05:45:01;7.37;;;4.13;;
3379;SDS011;1703;51.964;7.642;2023-09-18T05:47:29;10.20;;;4.47;;
3379;SDS011;1703;51.964;7.642;2023-09-18T05:49:56;10.33;;;4.30;;
3379;SDS011;1703;51.964;7.642;2023-09-18T05:52:23;7.07;;;4.13;;
3379;SDS011;1703;51.964;7.642;2023-09-18T05:54:51;8.37;;;5.10;;
3379;SDS011;1703;51.964;7.642;2023-09-18T05:57:18;6.10;;;4.67;;
3379;SDS011;1703;51.964;7.642;2023-09-18T05:59:45;13.63;;;4.87;;
3379;SDS011;1703;51.964;7.642;2023-09-18T06:02:12;8.93;;;4.90;;
3379;SDS011;1703;51.964;7.642;2023-09-18T06:04:38;14.23;;;5.40;;
3379;SDS011;1703;51.964;7.642;2023-09-18T06:07:06;9.80;;;5.40;;
3379;SDS011;1703;51.964;7.642;2023-09-18T06:09:33;13.20;;;4.43;;
3379;SDS011;1703;51.964;7.642;2023-09-18T06:12:01;10.07;;;5.20;;
3379;SDS011;1703;51.964;7.642;2023-09-18T06:14:30;13.50;;;5.10;;
3379;SDS011;1703;51.964;7.642;2023-09-18T06:16:57;10.20;;;4.97;;
3379;SDS011;1703;51.964;7.642;2023-09-18T06:19:23;9.57;;;4.73;;
3379;SDS011;1703;51.964;7.642;2023-09-18T06:21:50;12.50;;;4.80;;
3379;SDS011;1703;51.964;7.642;2023-09-18T06:24:17;14.73;;;5.30;;
3379;SDS011;1703;51.964;7.642;2023-09-18T06:26:44;10.10;;;4.80;;
3379;SDS011;1703;51.964;7.642;2023-09-18T06:29:12;20.33;;;4.90;;
3379;SDS011;1703;51.964;7.642;2023-09-18T06:31:39;11.20;;;4.70;;
3379;SDS011;1703;51.964;7.642;2023-09-18T06:34:06;13.33;;;5.00;;
3379;SDS011;1703;51.964;7.642;2023-09-18T06:36:33;8.80;;;5.43;;
3379;SDS011;1703;51.964;7.642;2023-09-18T06:39:00;12.80;;;4.40;;
3379;SDS011;1703;51.964;7.642;2023-09-18T06:41:27;10.40;;;4.33;;
3379;SDS011;1703;51.964;7.642;2023-09-18T06:43:54;19.60;;;6.03;;
3379;SDS011;1703;51.964;7.642;2023-09-18T06:46:23;7.70;;;4.40;;
3379;SDS011;1703;51.964;7.642;2023-09-18T06:48:50;13.47;;;5.00;;
3379;SDS011;1703;51.964;7.642;2023-09-18T06:51:18;13.03;;;4.13;;
3379;SDS011;1703;51.964;7.642;2023-09-18T06:53:44;15.97;;;5.00;;
3379;SDS011;1703;51.964;7.642;2023-09-18T06:56:11;7.00;;;3.97;;
3379;SDS011;1703;51.964;7.642;2023-09-18T06:58:38;12.10;;;4.30;;
3379;SDS011;1703;51.964;7.642;2023-09-18T07:01:05;12.13;;;6.03;;
3379;SDS011;1703;51.964;7.642;2023-09-18T07:03:35;11.03;;;5.07;;
3379;SDS011;1703;51.964;7.642;2023-09-18T07:06:05;9.83;;;3.80;;
3379;SDS011;1703;51.964;7.642;2023-09-18T07:08:32;12.10;;;4.50;;
3379;SDS011;1703;51.964;7.642;2023-09-18T07:10:59;7.80;;;4.13;;
3379;SDS011;1703;51.964;7.642;2023-09-18T07:13:26;13.10;;;4.57;;
3379;SDS011;1703;51.964;7.642;2023-09-18T07:15:53;14.73;;;5.03;;
3379;SDS011;1703;51.964;7.642;2023-09-18T07:18:19;8.60;;;4.10;;
3379;SDS011;1703;51.964;7.642;2023-09-18T07:20:48;10.63;;;5.50;;
3379;SDS011;1703;51.964;7.642;2023-09-18T07:23:14;9.63;;;3.97;;
3379;SDS011;1703;51.964;7.642;2023-09-18T07:25:41;11.13;;;4.23;;
3379;SDS011;1703;51.964;7.642;2023-09-18T07:28:09;16.40;;;4.57;;
3379;SDS011;1703;51.964;7.642;2023-09-18T07:30:41;9.43;;;4.73;;
3379;SDS011;1703;51.964;7.642;2023-09-18T07:33:08;11.40;;;4.70;;
3379;SDS011;1703;51.964;7.642;2023-09-18T07:35:36;7.97;;;4.00;;
3379;SDS011;1703;51.964;7.642;2023-09-18T07:38:04;16.43;;;4.50;;
3379;SDS011;1703;51.964;7.642;2023-09-18T07:40:31;16.53;;;5.00;;
3379;SDS011;1703;51.964;7.642;2023-09-18T07:42:58;13.15;;;5.40;;
3379;SDS011;1703;51.964;7.642;2023-09-18T07:45:25;3.57;;;3.10;;
3379;SDS011;1703;51.964;7.642;2023-09-18T07:47:52;5.87;;;3.50;;
3379;SDS011;1703;51.964;7.642;2023-09-18T07:50:18;17.50;;;4.30;;
3379;SDS011;1703;51.964;7.642;2023-09-18T07:52:45;12.30;;;3.53;;
3379;SDS011;1703;51.964;7.642;2023-09-18T07:55:14;9.60;;;3.70;;
3379;SDS011;1703;51.964;7.642;2023-09-18T07:57:40;7.17;;;4.57;;
3379;SDS011;1703;51.964;7.642;2023-09-18T08:00:10;8.57;;;4.60;;
3379;SDS011;1703;51.964;7.642;2023-09-18T08:02:38;9.87;;;3.43;;
3379;SDS011;1703;51.964;7.642;2023-09-18T08:05:05;10.87;;;3.83;;
3379;SDS011;1703;51.964;7.642;2023-09-18T08:07:32;12.33;;;3.77;;
3379;SDS011;1703;51.964;7.642;2023-09-18T08:10:00;11.63;;;3.67;;
3379;SDS011;1703;51.964;7.642;2023-09-18T08:12:28;16.10;;;3.67;;
3379;SDS011;1703;51.964;7.642;2023-09-18T08:14:55;10.60;;;3.50;;
3379;SDS011;1703;51.964;7.642;2023-09-18T08:17:24;11.17;;;3.30;;
3379;SDS011;1703;51.964;7.642;2023-09-18T08:19:51;11.73;;;3.80;;
3379;SDS011;1703;51.964;7.642;2023-09-18T08:22:18;13.77;;;3.50;;
3379;SDS011;1703;51.964;7.642;2023-09-18T08:24:45;5.23;;;3.20;;
3379;SDS011;1703;51.964;7.642;2023-09-18T08:27:13;5.73;;;3.30;;
3379;SDS011;1703;51.964;7.642;2023-09-18T08:29:43;14.23;;;3.30;;
3379;SDS011;1703;51.964;7.642;2023-09-18T08:32:10;11.70;;;3.70;;
3379;SDS011;1703;51.964;7.642;2023-09-18T08:34:37;7.53;;;3.30;;
3379;SDS011;1703;51.964;7.642;2023-09-18T08:37:03;13.47;;;2.83;;
3379;SDS011;1703;51.964;7.642;2023-09-18T08:39:30;6.17;;;3.57;;
3379;SDS011;1703;51.964;7.642;2023-09-18T08:41:59;15.40;;;3.00;;
3379;SDS011;1703;51.964;7.642;2023-09-18T08:44:29;9.73;;;4.20;;
3379;SDS011;1703;51.964;7.642;2023-09-18T08:46:58;6.97;;;3.60;;
3379;SDS011;1703;51.964;7.642;2023-09-18T08:49:26;8.20;;;2.90;;
3379;SDS011;1703;51.964;7.642;2023-09-18T08:51:54;6.20;;;3.07;;
3379;SDS011;1703;51.964;7.642;2023-09-18T08:54:22;6.50;;;3.13;;
3379;SDS011;1703;51.964;7.642;2023-09-18T08:56:50;7.10;;;2.60;;
3379;SDS011;1703;51.964;7.642;2023-09-18T08:59:17;6.93;;;2.93;;
3379;SDS011;1703;51.964;7.642;2023-09-18T09:01:46;3.50;;;3.20;;
3379;SDS011;1703;51.964;7.642;2023-09-18T09:04:14;7.80;;;2.97;;
3379;SDS011;1703;51.964;7.642;2023-09-18T09:06:41;5.93;;;2.47;;
3379;SDS011;1703;51.964;7.642;2023-09-18T09:09:09;3.43;;;2.90;;
3379;SDS011;1703;51.964;7.642;2023-09-18T09:11:38;5.33;;;2.47;;
3379;SDS011;1703;51.964;7.642;2023-09-18T09:14:08;3.37;;;2.27;;
3379;SDS011;1703;51.964;7.642;2023-09-18T09:16:41;6.17;;;3.07;;
3379;SDS011;1703;51.964;7.642;2023-09-18T09:19:12;3.87;;;3.00;;
3379;SDS011;1703;51.964;7.642;2023-09-18T09:21:40;6.30;;;3.10;;
3379;SDS011;1703;51.964;7.642;2023-09-18T09:24:09;4.50;;;3.00;;
3379;SDS011;1703;51.964;7.642;2023-09-18T09:26:39;3.40;;;3.10;;
3379;SDS011;1703;51.964;7.642;2023-09-18T09:29:14;5.40;;;2.50;;
3379;SDS011;1703;51.964;7.642;2023-09-18T09:31:43;6.70;;;2.73;;
3379;SDS011;1703;51.964;7.642;2023-09-18T09:34:10;4.70;;;2.40;;
3379;SDS011;1703;51.964;7.642;2023-09-18T09:36:41;3.10;;;2.70;;
3379;SDS011;1703;51.964;7.642;2023-09-18T09:39:17;5.77;;;2.33;;
3379;SDS011;1703;51.964;7.642;2023-09-18T09:41:46;6.90;;;2.53;;
3379;SDS011;1703;51.964;7.642;2023-09-18T09:44:14;8.37;;;3.00;;
3379;SDS011;1703;51.964;7.642;2023-09-18T09:46:45;4.23;;;2.70;;
3379;SDS011;1703;51.964;7.642;2023-09-18T09:49:12;2.93;;;2.17;;
3379;SDS011;1703;51.964;7.642;2023-09-18T09:51:42;4.30;;;2.50;;
3379;SDS011;1703;51.964;7.642;2023-09-18T09:54:08;7.13;;;3.00;;
3379;SDS011;1703;51.964;7.642;2023-09-18T09:56:43;3.20;;;2.60;;
3379;SDS011;1703;51.964;7.642;2023-09-18T09:59:11;5.20;;;2.67;;
3379;SDS011;1703;51.964;7.642;2023-09-18T10:01:39;5.17;;;2.50;;
3379;SDS011;1703;51.964;7.642;2023-09-18T10:04:09;5.33;;;2.73;;
3379;SDS011;1703;51.964;7.642;2023-09-18T10:06:39;2.70;;;2.47;;
3379;SDS011;1703;51.964;7.642;2023-09-18T10:09:11;4.70;;;2.73;;
3379;SDS011;1703;51.964;7.642;2023-09-18T10:11:40;12.80;;;2.80;;
3379;SDS011;1703;51.964;7.642;2023-09-18T10:14:10;6.10;;;2.67;;
3379;SDS011;1703;51.964;7.642;2023-09-18T10:16:41;3.17;;;1.90;;
3379;SDS011;1703;51.964;7.642;2023-09-18T10:19:17;13.07;;;2.50;;
3379;SDS011;1703;51.964;7.642;2023-09-18T10:21:55;3.13;;;2.17;;
3379;SDS011;1703;51.964;7.642;2023-09-18T10:24:32;6.93;;;2.40;;
3379;SDS011;1703;51.964;7.642;2023-09-18T10:27:02;2.30;;;1.97;;
3379;SDS011;1703;51.964;7.642;2023-09-18T10:29:32;4.17;;;2.60;;
3379;SDS011;1703;51.964;7.642;2023-09-18T10:32:00;8.90;;;2.90;;
3379;SDS011;1703;51.964;7.642;2023-09-18T10:34:30;10.17;;;2.73;;
3379;SDS011;1703;51.964;7.642;2023-09-18T10:37:00;5.10;;;2.83;;
3379;SDS011;1703;51.964;7.642;2023-09-18T10:39:31;6.80;;;3.57;;
3379;SDS011;1703;51.964;7.642;2023-09-18T10:42:01;4.30;;;3.10;;
3379;SDS011;1703;51.964;7.642;2023-09-18T10:44:29;2.60;;;2.40;;
3379;SDS011;1703;51.964;7.642;2023-09-18T10:46:56;10.80;;;3.40;;
3379;SDS011;1703;51.964;7.642;2023-09-18T10:49:25;8.80;;;2.53;;
3379;SDS011;1703;51.964;7.642;2023-09-18T10:51:53;8.63;;;2.07;;
3379;SDS011;1703;51.964;7.642;2023-09-18T10:54:23;2.67;;;2.17;;
3379;SDS011;1703;51.964;7.642;2023-09-18T10:56:51;7.37;;;1.97;;
3379;SDS011;1703;51.964;7.642;2023-09-18T10:59:19;3.63;;;2.03;;
3379;SDS011;1703;51.964;7.642;2023-09-18T11:01:58;3.40;;;1.80;;
3379;SDS011;1703;51.964;7.642;2023-09-18T11:04:42;3.70;;;2.17;;
3379;SDS011;1703;51.964;7.642;2023-09-18T11:07:19;1.70;;;1.60;;
3379;SDS011;1703;51.964;7.642;2023-09-18T11:09:48;5.70;;;1.87;;
3379;SDS011;1703;51.964;7.642;2023-09-18T11:12:17;12.43;;;2.10;;
3379;SDS011;1703;51.964;7.642;2023-09-18T11:14:47;8.37;;;2.70;;
3379;SDS011;1703;51.964;7.642;2023-09-18T11:17:33;2.83;;;2.17;;
3379;SDS011;1703;51.964;7.642;2023-09-18T11:20:05;5.83;;;2.03;;
3379;SDS011;1703;51.964;7.642;2023-09-18T11:22:39;2.30;;;1.60;;
3379;SDS011;1703;51.964;7.642;2023-09-18T11:25:35;2.93;;;2.50;;
3379;SDS011;1703;51.964;7.642;2023-09-18T11:28:07;3.83;;;2.10;;
3379;SDS011;1703;51.964;7.642;2023-09-18T11:30:35;4.50;;;1.57;;
3379;SDS011;1703;51.964;7.642;2023-09-18T11:33:05;4.13;;;1.70;;
3379;SDS011;1703;51.964;7.642;2023-09-18T11:35:34;9.70;;;1.67;;
3379;SDS011;1703;51.964;7.642;2023-09-18T11:38:05;10.40;;;1.73;;
3379;SDS011;1703;51.964;7.642;2023-09-18T11:40:36;5.53;;;2.07;;
3379;SDS011;1703;51.964;7.642;2023-09-18T11:43:18;2.13;;;1.67;;
3379;SDS011;1703;51.964;7.642;2023-09-18T11:45:53;4.57;;;2.30;;
3379;SDS011;1703;51.964;7.642;2023-09-18T11:48:21;4.13;;;1.50;;
3379;SDS011;1703;51.964;7.642;2023-09-18T11:50:53;2.73;;;1.40;;
3379;SDS011;1703;51.964;7.642;2023-09-18T11:53:23;3.80;;;1.70;;
3379;SDS011;1703;51.964;7.642;2023-09-18T11:55:52;3.83;;;1.60;;
3379;SDS011;1703;51.964;7.642;2023-09-18T11:58:23;14.30;;;1.53;;
3379;SDS011;1703;51.964;7.642;2023-09-18T12:00:51;2.30;;;1.80;;
3379;SDS011;1703;51.964;7.642;2023-09-18T12:03:21;8.80;;;7.60;;
3379;SDS011;1703;51.964;7.642;2023-09-18T12:05:53;5.00;;;1.67;;
3379;SDS011;1703;51.964;7.642;2023-09-18T12:08:21;4.57;;;2.10;;
3379;SDS011;1703;51.964;7.642;2023-09-18T12:10:59;5.60;;;3.27;;
3379;SDS011;1703;51.964;7.642;2023-09-18T12:13:30;2.87;;;1.70;;
3379;SDS011;1703;51.964;7.642;2023-09-18T12:15:58;6.43;;;2.90;;
3379;SDS011;1703;51.964;7.642;2023-09-18T12:18:34;7.43;;;2.70;;
3379;SDS011;1703;51.964;7.642;2023-09-18T12:21:10;6.63;;;2.40;;
3379;SDS011;1703;51.964;7.642;2023-09-18T12:23:44;8.43;;;2.80;;
3379;SDS011;1703;51.964;7.642;2023-09-18T12:26:21;6.17;;;2.50;;
3379;SDS011;1703;51.964;7.642;2023-09-18T12:28:53;3.23;;;2.50;;
3379;SDS011;1703;51.964;7.642;2023-09-18T12:31:24;2.50;;;2.30;;
3379;SDS011;1703;51.964;7.642;2023-09-18T12:33:59;4.17;;;1.80;;
3379;SDS011;1703;51.964;7.642;2023-09-18T12:36:27;4.23;;;2.33;;
3379;SDS011;1703;51.964;7.642;2023-09-18T12:38:57;11.37;;;2.47;;
3379;SDS011;1703;51.964;7.642;2023-09-18T12:41:27;2.57;;;2.33;;
3379;SDS011;1703;51.964;7.642;2023-09-18T12:44:00;6.73;;;2.30;;
3379;SDS011;1703;51.964;7.642;2023-09-18T12:46:34;3.83;;;2.00;;
3379;SDS011;1703;51.964;7.642;2023-09-18T12:49:15;6.07;;;2.57;;
3379;SDS011;1703;51.964;7.642;2023-09-18T12:51:43;4.40;;;2.53;;
3379;SDS011;1703;51.964;7.642;2023-09-18T12:54:14;3.27;;;2.37;;
3379;SDS011;1703;51.964;7.642;2023-09-18T12:56:46;6.33;;;1.90;;
3379;SDS011;1703;51.964;7.642;2023-09-18T12:59:13;3.70;;;2.00;;
3379;SDS011;1703;51.964;7.642;2023-09-18T13:01:45;3.60;;;1.83;;
3379;SDS011;1703;51.964;7.642;2023-09-18T13:04:18;4.00;;;1.87;;
3379;SDS011;1703;51.964;7.642;2023-09-18T13:06:50;2.63;;;2.17;;
3379;SDS011;1703;51.964;7.642;2023-09-18T13:09:42;4.03;;;1.90;;
3379;SDS011;1703;51.964;7.642;2023-09-18T13:12:11;2.13;;;1.87;;
3379;SDS011;1703;51.964;7.642;2023-09-18T13:14:59;2.67;;;2.30;;
3379;SDS011;1703;51.964;7.642;2023-09-18T13:17:37;6.93;;;2.40;;
3379;SDS011;1703;51.964;7.642;2023-09-18T13:20:10;4.80;;;3.00;;
3379;SDS011;1703;51.964;7.642;2023-09-18T13:22:39;4.60;;;2.80;;
3379;SDS011;1703;51.964;7.642;2023-09-18T13:25:07;5.63;;;2.30;;
3379;SDS011;1703;51.964;7.642;2023-09-18T13:27:38;3.67;;;2.23;;
3379;SDS011;1703;51.964;7.642;2023-09-18T13:30:06;6.00;;;2.00;;
3379;SDS011;1703;51.964;7.642;2023-09-18T13:32:35;5.00;;;1.87;;
3379;SDS011;1703;51.964;7.642;2023-09-18T13:35:03;2.70;;;2.00;;
3379;SDS011;1703;51.964;7.642;2023-09-18T13:37:32;6.70;;;2.00;;
3379;SDS011;1703;51.964;7.642;2023-09-18T13:40:02;8.40;;;2.60;;
3379;SDS011;1703;51.964;7.642;2023-09-18T13:42:34;2.93;;;2.10;;
3379;SDS011;1703;51.964;7.642;2023-09-18T13:45:06;4.67;;;2.70;;
3379;SDS011;1703;51.964;7.642;2023-09-18T13:47:34;2.50;;;2.30;;
3379;SDS011;1703;51.964;7.642;2023-09-18T13:50:03;5.60;;;2.50;;
3379;SDS011;1703;51.964;7.642;2023-09-18T13:52:32;3.97;;;2.30;;
3379;SDS011;1703;51.964;7.642;2023-09-18T13:55:01;3.93;;;2.70;;
3379;SDS011;1703;51.964;7.642;2023-09-18T13:57:30;4.53;;;2.80;;
3379;SDS011;1703;51.964;7.642;2023-09-18T13:59:57;3.00;;;1.90;;
3379;SDS011;1703;51.964;7.642;2023-09-18T14:02:27;11.30;;;3.73;;
3379;SDS011;1703;51.964;7.642;2023-09-18T14:04:55;2.70;;;2.50;;
3379;SDS011;1703;51.964;7.642;2023-09-18T14:07:22;2.83;;;2.30;;
3379;SDS011;1703;51.964;7.642;2023-09-18T14:09:48;4.10;;;2.77;;
3379;SDS011;1703;51.964;7.642;2023-09-18T14:12:16;5.63;;;2.57;;
3379;SDS011;1703;51.964;7.642;2023-09-18T14:14:43;4.70;;;2.80;;
3379;SDS011;1703;51.964;7.642;2023-09-18T14:17:10;8.90;;;2.87;;
3379;SDS011;1703;51.964;7.642;2023-09-18T14:19:38;5.87;;;2.20;;
3379;SDS011;1703;51.964;7.642;2023-09-18T14:22:05;6.63;;;2.77;;
3379;SDS011;1703;51.964;7.642;2023-09-18T14:24:32;4.30;;;2.03;;
3379;SDS011;1703;51.964;7.642;2023-09-18T14:27:00;3.87;;;2.80;;
3379;SDS011;1703;51.964;7.642;2023-09-18T14:29:27;3.00;;;2.80;;
3379;SDS011;1703;51.964;7.642;2023-09-18T14:31:55;4.33;;;2.30;;
3379;SDS011;1703;51.964;7.642;2023-09-18T14:34:22;5.00;;;2.60;;
3379;SDS011;1703;51.964;7.642;2023-09-18T14:36:50;3.00;;;2.50;;
3379;SDS011;1703;51.964;7.642;2023-09-18T14:39:17;2.73;;;2.10;;
3379;SDS011;1703;51.964;7.642;2023-09-18T14:41:44;3.23;;;2.43;;
3379;SDS011;1703;51.964;7.642;2023-09-18T14:44:12;4.73;;;2.30;;
3379;SDS011;1703;51.964;7.642;2023-09-18T14:46:40;2.27;;;2.07;;
3379;SDS011;1703;51.964;7.642;2023-09-18T14:49:08;2.43;;;2.23;;
3379;SDS011;1703;51.964;7.642;2023-09-18T14:51:35;4.10;;;2.67;;
3379;SDS011;1703;51.964;7.642;2023-09-18T14:54:03;4.00;;;2.30;;
3379;SDS011;1703;51.964;7.642;2023-09-18T14:56:33;3.40;;;2.50;;
3379;SDS011;1703;51.964;7.642;2023-09-18T14:59:00;5.03;;;2.53;;
3379;SDS011;1703;51.964;7.642;2023-09-18T15:01:27;5.63;;;3.50;;
3379;SDS011;1703;51.964;7.642;2023-09-18T15:03:54;2.20;;;2.00;;
3379;SDS011;1703;51.964;7.642;2023-09-18T15:06:21;6.30;;;2.40;;
3379;SDS011;1703;51.964;7.642;2023-09-18T15:08:48;3.47;;;2.17;;
3379;SDS011;1703;51.964;7.642;2023-09-18T15:11:16;2.27;;;2.10;;
3379;SDS011;1703;51.964;7.642;2023-09-18T15:13:44;8.13;;;2.30;;
3379;SDS011;1703;51.964;7.642;2023-09-18T15:16:11;1.97;;;1.77;;
3379;SDS011;1703;51.964;7.642;2023-09-18T15:18:38;6.30;;;2.10;;
3379;SDS011;1703;51.964;7.642;2023-09-18T15:21:05;2.70;;;1.77;;
3379;SDS011;1703;51.964;7.642;2023-09-18T15:23:32;3.87;;;2.07;;